createdAt,value
2017-09-06T00:00:11.516Z,1.10
2017-09-06T00:02:38.988Z,1.00
2017-09-06T00:05:06.455Z,2.27
2017-09-06T00:07:33.939Z,1.40
2017-09-06T00:10:01.500Z,2.60
2017-09-06T00:12:28.997Z,1.70
2017-09-06T00:14:56.472Z,1.30
2017-09-06T00:17:23.947Z,1.40
2017-09-06T00:19:51.435Z,1.17
2017-09-06T00:22:18.917Z,0.97
2017-09-06T00:24:46.420Z,1.57
2017-09-06T00:27:13.889Z,1.80
2017-09-06T00:29:41.371Z,2.60
2017-09-06T00:32:08.932Z,1.20
2017-09-06T00:34:36.401Z,1.60
2017-09-06T00:37:03.891Z,1.20
2017-09-06T00:39:31.360Z,1.40
2017-09-06T00:41:58.828Z,1.13
2017-09-06T00:44:26.317Z,1.50
2017-09-06T00:46:53.797Z,1.33
2017-09-06T00:49:21.291Z,1.60
2017-09-06T00:51:48.769Z,1.67
2017-09-06T00:54:16.242Z,1.73
2017-09-06T00:56:43.727Z,1.67
2017-09-06T00:59:11.206Z,2.10
2017-09-06T01:01:38.728Z,1.80
2017-09-06T01:04:06.215Z,1.50
2017-09-06T01:06:33.693Z,1.60
2017-09-06T01:09:01.180Z,1.83
2017-09-06T01:11:28.648Z,1.83
2017-09-06T01:13:56.144Z,1.70
2017-09-06T01:16:23.616Z,2.33
2017-09-06T01:18:51.086Z,1.77
2017-09-06T01:21:18.568Z,1.07
2017-09-06T01:23:46.036Z,1.40
2017-09-06T01:26:13.548Z,1.40
2017-09-06T01:28:41.019Z,1.67
2017-09-06T01:31:08.531Z,1.40
2017-09-06T01:33:36.017Z,1.47
2017-09-06T01:36:03.488Z,1.53
2017-09-06T01:38:30.984Z,1.37
2017-09-06T01:40:58.455Z,1.60
2017-09-06T01:43:26.023Z,1.13
2017-09-06T01:45:53.503Z,1.53
2017-09-06T01:48:20.980Z,1.60
2017-09-06T01:50:48.475Z,1.40
2017-09-06T01:53:15.948Z,1.40
2017-09-06T01:55:43.510Z,1.87
2017-09-06T01:58:11.071Z,1.20
2017-09-06T02:00:38.540Z,1.30
2017-09-06T02:03:06.088Z,1.43
2017-09-06T02:05:33.647Z,1.43
2017-09-06T02:08:01.116Z,1.47
2017-09-06T02:10:28.668Z,1.40
2017-09-06T02:12:56.136Z,1.70
2017-09-06T02:15:23.633Z,2.17
2017-09-06T02:17:51.101Z,1.60
2017-09-06T02:20:18.608Z,1.17
2017-09-06T02:22:46.096Z,1.50
2017-09-06T02:25:13.566Z,1.63
2017-09-06T02:27:41.057Z,1.40
2017-09-06T02:30:08.532Z,1.80
2017-09-06T02:32:36.012Z,1.93
2017-09-06T02:35:03.504Z,1.43
2017-09-06T02:37:31.012Z,1.27
2017-09-06T02:39:58.578Z,1.40
2017-09-06T02:42:26.048Z,1.37
2017-09-06T02:44:53.516Z,1.40
2017-09-06T02:47:21.048Z,1.40
2017-09-06T02:49:48.516Z,1.17
2017-09-06T02:52:16.027Z,1.43
2017-09-06T02:54:43.500Z,1.10
2017-09-06T02:57:10.987Z,1.60
2017-09-06T02:59:38.472Z,1.30
2017-09-06T03:02:05.944Z,1.60
2017-09-06T03:04:33.447Z,1.53
2017-09-06T03:07:00.912Z,1.40
2017-09-06T03:09:28.385Z,1.40
2017-09-06T03:11:56.036Z,1.50
2017-09-06T03:14:23.504Z,1.23
2017-09-06T03:16:50.991Z,1.90
2017-09-06T03:19:18.468Z,1.80
2017-09-06T03:21:45.964Z,1.70
2017-09-06T03:24:13.443Z,1.70
2017-09-06T03:26:40.921Z,1.23
2017-09-06T03:29:08.415Z,1.50
2017-09-06T03:31:35.895Z,1.43
2017-09-06T03:34:03.361Z,1.67
2017-09-06T03:36:30.843Z,2.03
2017-09-06T03:38:58.315Z,1.43
2017-09-06T03:41:25.839Z,1.50
2017-09-06T03:43:53.304Z,1.80
2017-09-06T03:46:20.771Z,1.97
2017-09-06T03:48:48.308Z,1.50
2017-09-06T03:51:15.781Z,2.10
2017-09-06T03:53:43.277Z,1.90
2017-09-06T03:56:10.801Z,2.50
2017-09-06T03:58:38.280Z,1.73
2017-09-06T04:01:05.763Z,1.60
2017-09-06T04:03:33.231Z,2.50
2017-09-06T04:06:00.820Z,1.80
2017-09-06T04:08:28.291Z,1.80
2017-09-06T04:10:55.773Z,2.13
2017-09-06T04:13:23.260Z,2.20
2017-09-06T04:15:50.731Z,2.30
2017-09-06T04:18:18.307Z,2.53
2017-09-06T04:20:45.776Z,3.17
2017-09-06T04:23:13.243Z,3.17
2017-09-06T04:25:40.784Z,2.40
2017-09-06T04:28:08.253Z,2.63
2017-09-06T04:30:35.752Z,2.70
2017-09-06T04:33:03.263Z,2.40
2017-09-06T04:35:30.730Z,2.13
2017-09-06T04:37:58.216Z,2.40
2017-09-06T04:40:25.688Z,2.30
2017-09-06T04:42:53.179Z,2.17
2017-09-06T04:45:20.647Z,2.00
2017-09-06T04:47:48.211Z,2.17
2017-09-06T04:50:15.694Z,2.10
2017-09-06T04:52:43.175Z,2.40
2017-09-06T04:55:10.687Z,2.27
2017-09-06T04:57:38.155Z,2.67
2017-09-06T05:00:05.628Z,2.20
2017-09-06T05:02:33.111Z,2.40
2017-09-06T05:05:00.592Z,2.33
2017-09-06T05:07:28.080Z,2.70
2017-09-06T05:09:55.561Z,2.67
2017-09-06T05:12:23.160Z,3.13
2017-09-06T05:14:50.659Z,3.67
2017-09-06T05:17:18.138Z,3.10
2017-09-06T05:19:45.685Z,3.40
2017-09-06T05:22:13.156Z,3.43
2017-09-06T05:24:40.630Z,3.73
2017-09-06T05:27:08.111Z,3.70
2017-09-06T05:29:35.584Z,3.90
2017-09-06T05:32:03.076Z,3.80
2017-09-06T05:34:30.548Z,3.80
2017-09-06T05:36:58.019Z,4.43
2017-09-06T05:39:25.502Z,4.37
2017-09-06T05:41:52.990Z,4.30
2017-09-06T05:44:20.486Z,3.50
2017-09-06T05:46:47.953Z,4.67
2017-09-06T05:49:15.428Z,4.77
2017-09-06T05:51:42.907Z,4.33
2017-09-06T05:54:10.387Z,6.43
2017-09-06T05:56:37.885Z,4.40
2017-09-06T05:59:05.356Z,4.53
2017-09-06T06:01:32.828Z,4.87
2017-09-06T06:04:00.303Z,4.80
2017-09-06T06:06:27.884Z,5.00
2017-09-06T06:08:55.376Z,5.27
2017-09-06T06:11:22.840Z,4.90
2017-09-06T06:13:50.316Z,5.27
2017-09-06T06:16:17.810Z,4.70
2017-09-06T06:18:45.276Z,4.50
2017-09-06T06:21:12.764Z,5.40
2017-09-06T06:23:40.235Z,5.40
2017-09-06T06:26:07.708Z,5.73
2017-09-06T06:28:35.188Z,7.33
2017-09-06T06:31:02.659Z,6.00
2017-09-06T06:33:30.219Z,6.20
2017-09-06T06:35:57.684Z,6.30
2017-09-06T06:38:25.156Z,5.70
2017-09-06T06:40:52.640Z,5.13
2017-09-06T06:43:20.111Z,5.67
2017-09-06T06:45:47.613Z,5.87
2017-09-06T06:48:15.089Z,6.33
2017-09-06T06:50:42.555Z,4.60
2017-09-06T06:53:10.035Z,4.70
2017-09-06T06:55:37.510Z,4.83
2017-09-06T06:58:05.108Z,4.90
2017-09-06T07:00:32.588Z,4.43
2017-09-06T07:03:00.124Z,4.13
2017-09-06T07:05:27.604Z,5.50
2017-09-06T07:07:55.068Z,4.80
2017-09-06T07:10:22.563Z,4.70
2017-09-06T07:12:50.052Z,4.87
2017-09-06T07:15:17.620Z,4.63
2017-09-06T07:17:45.103Z,5.67
2017-09-06T07:20:12.569Z,4.60
2017-09-06T07:22:40.066Z,3.70
2017-09-06T09:16:10.593Z,3.50
2017-09-06T09:18:38.092Z,3.10
2017-09-06T09:21:05.564Z,4.10
2017-09-06T09:23:33.032Z,3.13
2017-09-06T09:26:00.511Z,3.57
2017-09-06T09:28:27.980Z,3.47
2017-09-06T09:30:55.579Z,4.60
2017-09-06T09:33:23.056Z,3.90
2017-09-06T09:35:50.533Z,3.70
2017-09-06T09:38:18.017Z,3.57
2017-09-06T09:40:45.541Z,4.37
2017-09-06T09:43:13.073Z,3.40
2017-09-06T09:45:40.552Z,3.73
2017-09-06T09:48:08.031Z,4.17
2017-09-06T09:50:35.515Z,3.30
2017-09-06T09:53:03.068Z,3.47
2017-09-06T09:55:30.579Z,3.20
2017-09-06T09:57:58.053Z,3.60
2017-09-06T10:00:25.534Z,3.13
2017-09-06T10:02:53.016Z,2.67
2017-09-06T10:05:20.564Z,2.90
2017-09-06T10:07:48.061Z,3.13
2017-09-06T10:10:15.537Z,3.00
2017-09-06T10:12:43.013Z,3.07
2017-09-06T10:15:10.504Z,2.83
2017-09-06T10:17:37.977Z,2.60
2017-09-06T10:20:05.468Z,2.73
2017-09-06T10:22:32.933Z,3.10
2017-09-06T10:25:00.399Z,3.00
2017-09-06T10:27:27.899Z,2.63
2017-09-06T10:29:55.420Z,2.80
2017-09-06T10:32:22.923Z,2.37
2017-09-06T10:34:50.413Z,2.30
2017-09-06T10:37:17.896Z,2.83
2017-09-06T10:39:45.380Z,2.67
2017-09-06T10:42:12.848Z,2.03
2017-09-06T10:44:40.339Z,3.00
2017-09-06T10:47:07.812Z,2.53
2017-09-06T10:49:35.312Z,2.43
2017-09-06T10:52:02.803Z,2.50
2017-09-06T10:54:30.367Z,2.57
2017-09-06T10:56:57.880Z,1.63
2017-09-06T10:59:25.352Z,2.40
2017-09-06T11:01:52.827Z,2.37
2017-09-06T11:04:20.310Z,2.10
2017-09-06T11:06:47.820Z,2.90
2017-09-06T11:09:15.328Z,4.10
2017-09-06T11:11:42.804Z,2.00
2017-09-06T11:14:10.276Z,1.97
2017-09-06T11:16:37.758Z,2.50
2017-09-06T11:19:05.241Z,2.37
2017-09-06T11:21:32.732Z,1.97
2017-09-06T11:24:00.204Z,2.60
2017-09-06T11:26:27.688Z,2.57
2017-09-06T11:28:55.179Z,2.30
2017-09-06T11:31:22.652Z,2.50
2017-09-06T11:33:50.143Z,2.90
2017-09-06T11:36:17.612Z,2.43
2017-09-06T11:38:45.088Z,2.47
2017-09-06T11:41:12.582Z,2.70
2017-09-06T11:43:40.059Z,2.27
2017-09-06T11:46:07.547Z,2.63
2017-09-06T11:48:35.033Z,3.47
2017-09-06T11:51:02.506Z,3.03
2017-09-06T11:53:30.005Z,2.90
2017-09-06T11:55:57.483Z,2.17
2017-09-06T11:58:24.978Z,2.80
2017-09-06T12:00:52.463Z,2.40
2017-09-06T12:03:19.963Z,2.40
2017-09-06T12:05:47.449Z,2.50
2017-09-06T12:08:14.924Z,2.87
2017-09-06T12:10:42.422Z,2.33
2017-09-06T12:13:09.902Z,2.60
2017-09-06T12:15:37.391Z,2.23
2017-09-06T12:18:04.907Z,2.77
2017-09-06T12:20:32.396Z,2.40
2017-09-06T12:22:59.913Z,2.80
2017-09-06T12:25:27.385Z,3.30
2017-09-06T12:27:54.883Z,2.97
2017-09-06T12:30:22.377Z,3.43
2017-09-06T12:32:49.856Z,2.60
2017-09-06T12:35:17.463Z,2.70
2017-09-06T12:37:44.927Z,2.83
2017-09-06T12:40:12.404Z,3.30
2017-09-06T12:42:39.887Z,2.47
2017-09-06T12:45:07.369Z,2.63
2017-09-06T12:47:34.916Z,2.43
2017-09-06T12:50:02.382Z,2.90
2017-09-06T12:52:29.868Z,2.70
2017-09-06T12:54:57.371Z,3.37
2017-09-06T12:57:24.851Z,2.73
2017-09-06T12:59:52.372Z,2.70
2017-09-06T13:02:19.849Z,2.43
2017-09-06T13:04:47.328Z,2.43
2017-09-06T13:07:14.811Z,4.03
2017-09-06T13:09:43.067Z,3.90
2017-09-06T13:12:10.562Z,2.60
2017-09-06T13:14:38.751Z,2.83
2017-09-06T13:17:06.229Z,2.93
2017-09-06T13:19:33.751Z,2.80
2017-09-06T13:22:01.228Z,2.40
2017-09-06T13:24:28.720Z,2.20
2017-09-06T13:26:56.199Z,3.67
2017-09-06T13:29:23.678Z,2.20
2017-09-06T13:31:51.171Z,2.63
2017-09-06T13:34:18.656Z,2.77
2017-09-06T13:36:46.148Z,2.80
2017-09-06T13:39:13.642Z,2.80
2017-09-06T13:41:41.112Z,2.93
2017-09-06T13:44:08.596Z,2.93
2017-09-06T13:46:36.100Z,2.77
2017-09-06T13:49:03.624Z,2.50
2017-09-06T13:51:31.114Z,2.53
2017-09-06T13:53:58.668Z,2.60
2017-09-06T13:56:26.184Z,3.20
2017-09-06T13:58:53.671Z,2.83
2017-09-06T14:01:21.176Z,2.70
2017-09-06T14:03:48.648Z,3.23
2017-09-06T14:06:16.119Z,3.03
2017-09-06T14:08:43.615Z,2.90
2017-09-06T15:03:43.551Z,3.23
2017-09-06T15:06:11.120Z,3.50
2017-09-06T15:08:38.597Z,3.60
2017-09-06T15:11:06.120Z,3.77
2017-09-06T15:13:34.571Z,3.57
2017-09-06T15:16:02.052Z,4.27
2017-09-06T15:18:29.580Z,3.37
2017-09-06T15:20:57.052Z,3.60
2017-09-06T15:23:24.523Z,3.90
2017-09-06T15:25:52.024Z,3.27
2017-09-06T15:28:19.494Z,3.40
2017-09-06T15:30:46.967Z,3.30
2017-09-06T15:33:14.471Z,3.50
2017-09-06T15:35:41.978Z,3.73
2017-09-06T15:38:09.457Z,3.97
2017-09-06T15:40:36.964Z,4.60
2017-09-06T15:43:04.440Z,4.00
2017-09-06T15:45:31.920Z,4.40
2017-09-06T15:47:59.419Z,4.37
2017-09-06T15:50:26.901Z,4.90
2017-09-06T15:52:54.388Z,3.83
2017-09-06T15:55:21.899Z,5.10
2017-09-06T15:57:49.368Z,4.20
2017-09-06T16:00:16.861Z,4.23
2017-09-06T16:02:44.423Z,3.50
2017-09-06T16:05:11.906Z,4.20
2017-09-06T16:07:39.481Z,3.60
2017-09-06T16:10:07.106Z,4.47
2017-09-06T16:12:34.583Z,3.60
2017-09-06T16:15:02.356Z,3.40
2017-09-06T16:17:29.847Z,4.10
2017-09-06T16:19:57.333Z,4.07
2017-09-06T16:22:24.809Z,4.30
2017-09-06T16:24:52.316Z,3.80
2017-09-06T16:27:19.884Z,4.13
2017-09-06T16:29:47.360Z,3.87
2017-09-06T16:32:14.859Z,4.20
2017-09-06T16:34:42.335Z,4.00
2017-09-06T16:37:09.811Z,4.13
2017-09-06T16:39:37.324Z,3.83
2017-09-06T16:42:04.801Z,4.37
2017-09-06T16:44:32.272Z,3.70
2017-09-06T16:46:59.767Z,4.00
2017-09-06T16:49:27.248Z,3.80
2017-09-06T16:51:54.745Z,3.80
2017-09-06T16:54:22.238Z,4.13
2017-09-06T16:56:49.728Z,5.03
2017-09-06T16:59:17.240Z,4.30
2017-09-06T17:01:44.715Z,3.50
2017-09-06T17:04:12.211Z,3.30
2017-09-06T17:06:39.733Z,4.30
2017-09-06T17:09:07.213Z,3.13
2017-09-06T17:11:34.824Z,3.60
2017-09-06T17:14:02.317Z,4.40
2017-09-06T17:16:29.797Z,3.47
2017-09-06T17:18:57.287Z,3.47
2017-09-06T17:21:24.765Z,4.20
2017-09-06T17:23:52.243Z,3.97
2017-09-06T17:26:19.745Z,4.23
2017-09-06T17:28:47.276Z,3.83
2017-09-06T17:31:14.780Z,4.13
2017-09-06T17:33:42.259Z,3.10
2017-09-06T17:36:09.748Z,3.80
2017-09-06T17:38:37.239Z,3.83
2017-09-06T17:41:04.719Z,3.67
2017-09-06T17:43:33.092Z,3.37
2017-09-06T17:46:00.568Z,4.07
2017-09-06T17:48:28.072Z,4.30
2017-09-06T17:50:56.633Z,3.90
2017-09-06T17:53:24.128Z,3.40
2017-09-06T17:55:51.646Z,4.40
2017-09-06T17:58:19.132Z,3.80
2017-09-06T18:00:46.599Z,4.60
2017-09-06T18:03:14.092Z,3.73
2017-09-06T18:05:41.568Z,4.18
2017-09-06T18:08:09.075Z,4.40
2017-09-06T18:10:36.547Z,4.23
2017-09-06T18:13:04.024Z,3.77
2017-09-06T18:15:31.534Z,4.17
2017-09-06T18:17:59.028Z,4.67
2017-09-06T18:20:26.531Z,4.57
2017-09-06T18:22:54.004Z,3.70
2017-09-06T18:25:21.540Z,4.37
2017-09-06T18:27:49.039Z,4.03
2017-09-06T18:30:16.593Z,4.87
2017-09-06T18:32:44.113Z,3.87
2017-09-06T18:35:12.386Z,4.80
2017-09-06T18:37:39.870Z,4.80
2017-09-06T18:40:07.389Z,5.00
2017-09-06T18:42:34.871Z,5.20
2017-09-06T18:45:02.388Z,3.90
2017-09-06T18:47:29.876Z,4.57
2017-09-06T18:49:57.383Z,3.33
2017-09-06T18:52:24.940Z,4.70
2017-09-06T18:54:52.444Z,4.77
2017-09-06T18:57:19.987Z,3.83
2017-09-06T18:59:47.495Z,3.93
2017-09-06T19:02:14.972Z,6.03
2017-09-06T19:04:42.464Z,4.50
2017-09-06T19:07:09.943Z,4.43
2017-09-06T19:09:37.454Z,5.47
2017-09-06T19:12:04.943Z,5.30
2017-09-06T19:14:32.416Z,4.53
2017-09-06T19:16:59.944Z,4.57
2017-09-06T19:19:27.419Z,4.23
2017-09-06T19:21:54.924Z,4.33
2017-09-06T19:24:22.473Z,5.13
2017-09-06T19:26:49.940Z,4.70
2017-09-06T19:29:17.454Z,4.30
2017-09-06T19:31:44.943Z,5.20
2017-09-06T19:34:12.453Z,4.97
2017-09-06T19:36:39.934Z,4.30
2017-09-06T19:39:07.442Z,5.23
2017-09-06T19:41:34.962Z,4.87
2017-09-06T19:44:02.471Z,4.60
2017-09-06T19:46:30.066Z,5.60
2017-09-06T19:48:57.928Z,4.70
2017-09-06T19:51:25.440Z,4.37
2017-09-06T19:53:53.032Z,4.67
2017-09-06T19:56:20.511Z,4.47
2017-09-06T19:58:48.048Z,4.20
2017-09-06T20:01:15.572Z,4.07
2017-09-06T20:03:43.052Z,4.63
2017-09-06T20:06:10.758Z,5.07
2017-09-06T20:08:38.246Z,5.17
2017-09-06T20:11:05.839Z,5.10
2017-09-06T20:13:33.394Z,4.60
2017-09-06T20:16:00.926Z,4.03
2017-09-06T20:18:28.514Z,4.70
2017-09-06T20:20:56.020Z,4.70
2017-09-06T20:23:23.516Z,4.50
2017-09-06T20:25:51.016Z,3.93
2017-09-06T20:28:18.560Z,3.90
2017-09-06T20:30:46.092Z,5.37
2017-09-06T20:33:13.567Z,4.23
2017-09-06T20:35:41.070Z,4.10
2017-09-06T20:38:08.543Z,4.70
2017-09-06T20:40:36.011Z,4.50
2017-09-06T20:43:03.524Z,4.50
2017-09-06T20:45:31.004Z,4.40
2017-09-06T20:47:58.500Z,5.73
2017-09-06T20:50:25.977Z,4.50
2017-09-06T20:52:53.459Z,3.87
2017-09-06T20:55:20.944Z,4.80
2017-09-06T20:57:48.423Z,4.57
2017-09-06T21:00:15.919Z,4.70
2017-09-06T21:02:43.396Z,4.27
2017-09-06T21:05:10.877Z,4.47
2017-09-06T21:07:38.369Z,5.10
2017-09-06T21:10:05.843Z,4.97
2017-09-06T21:12:33.344Z,5.43
2017-09-06T21:15:00.820Z,4.87
2017-09-06T21:17:28.295Z,4.50
2017-09-06T21:19:55.839Z,5.00
2017-09-06T21:22:23.314Z,4.67
2017-09-06T21:24:50.862Z,4.23
2017-09-06T21:27:18.343Z,5.10
2017-09-06T21:29:45.811Z,9.50
2017-09-06T21:32:13.291Z,5.73
2017-09-06T21:34:40.771Z,4.97
2017-09-06T21:37:08.264Z,4.53
2017-09-06T21:39:35.772Z,4.70
2017-09-06T21:42:03.264Z,4.93
2017-09-06T21:44:30.832Z,4.17
2017-09-06T21:46:58.632Z,4.30
2017-09-06T21:49:26.124Z,4.23
2017-09-06T21:51:53.635Z,5.27
2017-09-06T21:54:21.111Z,5.10
2017-09-06T21:56:48.607Z,5.47
2017-09-06T21:59:16.081Z,4.50
2017-09-06T22:01:43.578Z,4.60
2017-09-06T22:04:11.063Z,5.00
2017-09-06T22:06:38.538Z,4.80
2017-09-06T22:09:06.023Z,4.43
2017-09-06T22:11:33.511Z,4.90
2017-09-06T22:14:01.020Z,4.43
2017-09-06T22:16:28.499Z,4.93
2017-09-06T22:18:55.972Z,5.00
2017-09-06T22:21:23.464Z,10.27
2017-09-06T22:23:50.939Z,4.50
2017-09-06T22:26:18.436Z,4.83
2017-09-06T22:28:45.931Z,6.10
2017-09-06T22:31:13.414Z,5.10
2017-09-06T22:33:40.907Z,4.77
2017-09-06T22:36:08.387Z,7.77
2017-09-06T22:38:35.925Z,4.47
2017-09-06T22:41:03.404Z,5.60
2017-09-06T22:43:30.879Z,4.67
2017-09-06T22:45:58.381Z,5.87
2017-09-06T22:48:25.892Z,4.70
2017-09-06T22:50:53.394Z,6.37
2017-09-06T22:53:20.864Z,4.30
2017-09-06T22:55:48.335Z,5.90
2017-09-06T22:58:15.815Z,5.03
2017-09-06T23:00:43.293Z,4.90
2017-09-06T23:03:10.783Z,3.90
2017-09-06T23:05:38.260Z,5.13
2017-09-06T23:08:05.732Z,5.23
2017-09-06T23:10:33.219Z,4.90
2017-09-06T23:13:00.706Z,6.30
2017-09-06T23:15:28.204Z,23.70
2017-09-06T23:17:55.692Z,5.57
2017-09-06T23:20:23.172Z,5.87
2017-09-06T23:22:50.665Z,5.80
2017-09-06T23:25:18.148Z,4.90
2017-09-06T23:27:45.638Z,4.87
2017-09-06T23:30:13.116Z,5.00
2017-09-06T23:32:40.584Z,4.50
2017-09-06T23:35:08.072Z,5.10
2017-09-06T23:37:35.543Z,4.80
2017-09-06T23:40:03.035Z,4.80
2017-09-06T23:42:30.515Z,5.60
2017-09-06T23:44:57.988Z,4.77
2017-09-06T23:47:25.575Z,4.73
2017-09-06T23:49:53.055Z,5.43
2017-09-06T23:52:20.551Z,4.97
2017-09-06T23:54:48.028Z,5.30
2017-09-06T23:57:15.495Z,5.30
2017-09-06T23:59:42.984Z,5.03
